Courcelles, Belgium
Current Conditions -  °F | °C
As of 12:50 PM on Friday 31 Oct 2014 (Local Time) from EBCI Reporting Station
Clear Clear  
Wind Chill: 64°   Ceiling: Unl
Heat Index: 64°   Visibility: 6mi
Dew Point: 52°   Wind: 7mph
Humidity: 64%   Direction: 190°S
Pressure: 30.18"   Gusts: NA
Location:  50.46°N, 4.37°E
Report Text: EBCI 311150Z 19006KT CAVOK 18/11 Q1022 NOSIG
Loading
Personal Weather Stations






























Interactive Weather Map
Tropical Storm Tracking
New forecast layout! Learn more

10-Day Weather Forecast

Advertisements
Track Severe Weather on mobile